Branford, Connecticut
Current Conditions -  °F | °C
As of 1:53 PM on Thursday 18 Dec 2014 (Local Time) from KHVN Reporting Station
Broken Clouds Broken Clouds  
Wind Chill: 42°   Ceiling: 4200
Heat Index: 46°   Visibility: 10mi
Dew Point: 26°   Wind: 8mph
Humidity: 46%   Direction: 300°WNW
Pressure: 29.88"   Gusts: NA
Location:  41.28°N, 72.82°W
Report Text: KHVN 181853Z 30007KT 250V320 10SM BKN042 08/M03 A2988 RMK AO2 SLP117 T00781033
Loading
Personal Weather Stations






























Interactive Weather Map New forecast layout! Learn more

10-Day Weather Forecast

Advertisements
Track Severe Weather on mobile